Time;durP1;ratioP1;P1;durP2;ratioP2;P2;SDS_P1;SDS_P2;PMS_P1;PMS_P2;Temp;Humidity;BMP_temperature;BMP_pressure;BME280_temperature;BME280_humidity;BME280_pressure;Samples;Min_cycle;Max_cycle;Signal;HPM_P1;HPM_P2
2022/07/20 00:00:53;;;;;;;6.63;4.00;;;20.80;69.20;;;;;;5049439;28;20498;-73
2022/07/20 00:03:25;;;;;;;5.32;3.60;;;20.80;69.20;;;;;;5033884;28;20061;-73
2022/07/20 00:05:57;;;;;;;4.65;3.40;;;20.70;69.40;;;;;;5033411;28;20041;-72
2022/07/20 00:11:20;;;;;;;5.63;3.30;;;20.50;70.00;;;;;;5047985;28;20497;-73
2022/07/20 00:13:54;;;;;;;4.93;3.65;;;20.50;70.50;;;;;;5050128;28;20048;-73
2022/07/20 00:16:28;;;;;;;5.28;3.45;;;20.40;70.60;;;;;;5049665;28;20033;-73
2022/07/20 00:19:00;;;;;;;7.97;3.42;;;20.50;70.50;;;;;;5047731;28;20065;-73
2022/07/20 00:21:31;;;;;;;5.80;3.80;;;20.40;70.60;;;;;;5027503;28;20374;-73
2022/07/20 00:24:04;;;;;;;6.25;3.60;;;20.40;70.90;;;;;;5052139;28;20045;-73
2022/07/20 00:26:35;;;;;;;5.70;3.20;;;20.30;71.10;;;;;;5050056;28;20040;-73
2022/07/20 00:29:07;;;;;;;4.65;3.22;;;20.20;71.40;;;;;;5032864;28;20045;-73
2022/07/20 00:31:39;;;;;;;5.45;3.05;;;20.20;72.40;;;;;;5054049;28;20492;-73
2022/07/20 00:34:10;;;;;;;8.85;3.72;;;20.10;71.80;;;;;;5051447;28;20051;-72
2022/07/20 00:36:42;;;;;;;5.40;3.42;;;20.10;72.20;;;;;;5035852;28;20540;-73
2022/07/20 00:39:14;;;;;;;10.32;3.22;;;20.00;72.50;;;;;;5037807;28;20086;-73
2022/07/20 00:41:46;;;;;;;4.93;3.53;;;20.00;73.50;;;;;;5052907;28;20048;-73
2022/07/20 00:44:18;;;;;;;4.95;3.30;;;19.90;74.00;;;;;;5050285;28;20045;-72
2022/07/20 00:46:53;;;;;;;4.95;3.08;;;19.80;73.60;;;;;;5032174;28;20065;-72
2022/07/20 00:49:25;;;;;;;3.78;3.35;;;19.70;74.00;;;;;;5053055;28;20393;-72
2022/07/20 00:51:56;;;;;;;5.47;3.13;;;19.70;74.10;;;;;;5051168;28;20068;-73
2022/07/20 00:54:28;;;;;;;7.38;3.50;;;19.70;74.30;;;;;;5019727;28;20072;-73
2022/07/20 00:57:00;;;;;;;7.45;4.15;;;19.60;74.50;;;;;;5028892;28;20647;-73
2022/07/20 00:59:27;;;;;;;7.03;3.70;;;19.60;75.00;;;;;;5032983;28;20496;-72
2022/07/20 01:01:59;;;;;;;5.13;3.53;;;19.60;75.10;;;;;;5033988;28;20071;-73
2022/07/20 01:04:31;;;;;;;3.70;3.20;;;19.60;75.50;;;;;;5042724;28;20629;-72
2022/07/20 01:06:58;;;;;;;3.55;3.03;;;19.50;75.50;;;;;;5047218;28;20041;-73
2022/07/20 01:09:30;;;;;;;5.00;3.57;;;19.40;75.80;;;;;;5047218;28;20049;-73
2022/07/20 01:12:02;;;;;;;5.82;3.65;;;19.40;76.20;;;;;;5050169;28;20060;-72
2022/07/20 01:14:33;;;;;;;3.97;3.42;;;19.40;76.40;;;;;;5051888;28;20049;-72
2022/07/20 01:17:05;;;;;;;6.88;3.35;;;19.40;76.50;;;;;;5048292;28;20044;-72
2022/07/20 01:19:37;;;;;;;4.57;3.63;;;19.30;77.00;;;;;;5052393;28;20048;-72
2022/07/20 01:22:09;;;;;;;6.07;3.67;;;19.30;77.30;;;;;;5033656;28;20049;-73
2022/07/20 01:24:41;;;;;;;5.70;3.50;;;19.20;77.30;;;;;;5050041;28;20047;-72
2022/07/20 01:27:12;;;;;;;5.60;3.47;;;19.20;77.50;;;;;;5049274;28;20552;-73
2022/07/20 01:29:44;;;;;;;7.15;3.50;;;19.20;77.60;;;;;;5048420;28;20055;-73
2022/07/20 01:32:16;;;;;;;5.60;3.50;;;19.20;77.80;;;;;;5051462;28;20044;-73
2022/07/20 01:34:48;;;;;;;5.82;4.03;;;19.10;78.00;;;;;;5031996;28;20493;-72
2022/07/20 01:37:19;;;;;;;3.38;3.08;;;19.00;78.50;;;;;;5050955;28;20099;-72
2022/07/20 01:39:46;;;;;;;5.88;3.30;;;19.00;78.80;;;;;;5052044;28;20552;-72
2022/07/20 01:42:18;;;;;;;6.88;3.50;;;18.90;79.10;;;;;;5028491;28;20056;-72
2022/07/20 01:44:50;;;;;;;5.38;3.60;;;18.90;79.60;;;;;;5030878;28;20401;-73
2022/07/20 01:47:21;;;;;;;5.55;3.80;;;18.80;79.80;;;;;;5032201;28;20140;-73
2022/07/20 01:49:53;;;;;;;5.80;3.60;;;18.70;80.40;;;;;;5051996;28;20068;-72
2022/07/20 01:52:25;;;;;;;5.05;3.58;;;18.70;80.80;;;;;;5047529;28;20040;-72
2022/07/20 01:54:56;;;;;;;5.90;3.38;;;18.70;81.00;;;;;;5034394;28;20047;-72
2022/07/20 01:57:28;;;;;;;4.80;3.53;;;18.70;81.10;;;;;;5049503;28;20047;-73
2022/07/20 02:00:00;;;;;;;5.07;3.22;;;18.70;81.40;;;;;;5032082;28;20153;-72
2022/07/20 02:02:37;;;;;;;3.45;3.13;;;18.70;81.70;;;;;;5047830;28;20059;-73
2022/07/20 02:05:09;;;;;;;6.05;3.50;;;18.60;82.10;;;;;;5049183;28;20047;-73
2022/07/20 02:07:41;;;;;;;4.75;3.20;;;18.60;82.40;;;;;;5051064;28;20366;-72
2022/07/20 02:10:14;;;;;;;4.40;3.60;;;18.50;82.80;;;;;;5034954;28;20033;-72
2022/07/20 02:12:46;;;;;;;5.40;3.72;;;18.50;83.30;;;;;;5034500;28;20500;-73
2022/07/20 02:18:11;;;;;;;6.10;3.60;;;18.30;84.90;;;;;;5047259;28;20049;-73
2022/07/20 02:20:43;;;;;;;5.25;3.25;;;18.30;85.60;;;;;;5047108;28;20037;-72
2022/07/20 02:23:15;;;;;;;6.07;3.53;;;18.30;86.00;;;;;;5034517;28;20076;-72
2022/07/20 02:25:46;;;;;;;5.13;3.30;;;18.30;86.40;;;;;;5032898;28;20055;-72
2022/07/20 02:28:13;;;;;;;5.10;3.15;;;18.30;86.40;;;;;;5032054;28;20033;-72
2022/07/20 02:30:40;;;;;;;4.40;3.28;;;18.30;86.50;;;;;;5050167;28;20051;-73
2022/07/20 02:33:12;;;;;;;4.13;3.15;;;18.30;86.80;;;;;;5032941;28;20138;-72
2022/07/20 02:35:44;;;;;;;7.53;3.92;;;18.30;87.30;;;;;;5050565;28;20049;-71
2022/07/20 02:38:16;;;;;;;7.75;4.32;;;18.30;87.40;;;;;;5045833;28;20583;-73
2022/07/20 02:40:48;;;;;;;6.10;3.38;;;18.30;87.90;;;;;;5047301;28;20497;-73
2022/07/20 02:43:20;;;;;;;4.07;3.50;;;18.20;88.80;;;;;;5049004;28;20047;-73
2022/07/20 02:45:52;;;;;;;4.70;3.72;;;18.10;88.50;;;;;;5049117;28;20041;-72
2022/07/20 02:48:24;;;;;;;5.78;3.45;;;18.00;89.60;;;;;;5058495;22;20049;-70
2022/07/20 02:50:55;;;;;;;5.75;3.85;;;18.00;89.80;;;;;;5022957;28;20048;-70
2022/07/20 02:53:27;;;;;;;7.93;3.58;;;18.00;90.00;;;;;;5003937;28;20166;-70
2022/07/20 02:55:59;;;;;;;10.60;4.35;;;17.90;90.50;;;;;;5029412;28;20037;-70
2022/07/20 02:58:31;;;;;;;7.13;4.57;;;17.80;90.70;;;;;;5010053;28;20041;-71
2022/07/20 03:00:57;;;;;;;5.90;4.43;;;17.70;90.80;;;;;;5011531;28;20045;-71
2022/07/20 03:03:29;;;;;;;6.20;3.80;;;17.70;91.30;;;;;;5028866;28;20141;-71
2022/07/20 03:06:01;;;;;;;6.70;4.00;;;17.60;91.60;;;;;;5030011;28;20121;-71
2022/07/20 03:08:33;;;;;;;6.78;3.70;;;17.60;91.90;;;;;;5012566;28;20041;-71
2022/07/20 03:11:05;;;;;;;4.20;3.67;;;17.60;91.90;;;;;;5030453;28;20045;-71
2022/07/20 03:13:36;;;;;;;7.32;3.50;;;17.60;92.20;;;;;;5030471;28;20131;-70
2022/07/20 03:16:08;;;;;;;5.45;3.97;;;17.50;92.40;;;;;;5013298;28;20069;-71
2022/07/20 03:18:40;;;;;;;8.98;4.53;;;17.50;92.50;;;;;;5029246;28;20077;-71
2022/07/20 03:21:12;;;;;;;7.20;4.35;;;17.50;92.90;;;;;;5030694;28;20076;-71
2022/07/20 03:23:43;;;;;;;8.80;4.15;;;17.50;93.00;;;;;;5029180;28;20065;-71
2022/07/20 03:26:15;;;;;;;11.02;4.20;;;17.40;93.10;;;;;;5020170;28;20041;-71
2022/07/20 03:28:47;;;;;;;9.15;4.25;;;17.40;93.40;;;;;;4997494;28;20033;-72
2022/07/20 03:31:19;;;;;;;5.03;3.60;;;17.30;93.60;;;;;;5023482;28;20052;-78
2022/07/20 03:33:51;;;;;;;9.65;5.68;;;17.20;93.90;;;;;;5022372;28;20056;-71
2022/07/20 03:36:23;;;;;;;9.25;5.00;;;17.20;94.10;;;;;;5028817;28;20045;-72
2022/07/20 03:38:54;;;;;;;8.77;4.90;;;17.20;94.40;;;;;;5027745;28;20505;-71
2022/07/20 03:41:26;;;;;;;9.20;4.70;;;17.10;94.50;;;;;;5029591;28;20400;-71
2022/07/20 03:43:58;;;;;;;10.48;4.22;;;17.50;94.10;;;;;;5028200;28;20497;-71
2022/07/20 03:46:30;;;;;;;9.48;4.53;;;17.50;94.20;;;;;;5010401;28;20041;-71
2022/07/20 03:49:02;;;;;;;7.40;4.47;;;17.40;94.40;;;;;;4999911;28;20056;-71
2022/07/20 03:51:29;;;;;;;7.65;3.90;;;17.30;94.70;;;;;;5014739;28;20533;-71
2022/07/20 03:54:00;;;;;;;7.93;3.90;;;17.30;94.70;;;;;;5031946;28;20048;-77
2022/07/20 03:56:32;;;;;;;7.15;4.10;;;17.30;94.70;;;;;;5016359;28;20045;-71
2022/07/20 03:58:59;;;;;;;6.05;3.80;;;17.40;95.10;;;;;;5015545;28;20041;-72
2022/07/20 04:01:26;;;;;;;11.07;4.15;;;17.40;94.80;;;;;;5016789;28;20695;-71
2022/07/20 04:03:57;;;;;;;8.63;4.20;;;17.40;95.10;;;;;;5032981;28;20076;-72
2022/07/20 04:06:29;;;;;;;7.78;4.45;;;17.40;95.20;;;;;;5016013;28;20049;-71
2022/07/20 04:09:02;;;;;;;8.60;4.25;;;17.30;95.40;;;;;;5032389;28;20041;-71
2022/07/20 04:11:35;;;;;;;5.43;3.95;;;17.20;95.60;;;;;;5012832;28;20532;-71
2022/07/20 04:14:07;;;;;;;;;;;17.20;95.90;;;;;;5032154;28;20529;-69
2022/07/20 04:16:39;;;;;;;9.50;4.70;;;17.20;96.20;;;;;;5031196;28;19968;-71
2022/07/20 04:19:10;;;;;;;10.80;4.68;;;17.30;96.40;;;;;;5032739;28;20030;-71
2022/07/20 04:21:42;;;;;;;11.73;4.82;;;17.40;96.50;;;;;;5032688;28;20405;-70
2022/07/20 04:24:14;;;;;;;11.40;4.97;;;17.40;96.50;;;;;;5006305;28;20046;-71
2022/07/20 04:26:46;;;;;;;9.73;4.97;;;17.40;96.70;;;;;;5029425;28;20041;-71
2022/07/20 04:29:19;;;;;;;11.40;5.28;;;17.30;96.80;;;;;;5012781;28;20859;-71
2022/07/20 04:31:51;;;;;;;16.58;5.40;;;17.40;96.70;;;;;;5016470;28;20029;-71
2022/07/20 04:34:23;;;;;;;13.23;7.78;;;17.40;96.90;;;;;;5014270;28;20045;-71
2022/07/20 04:36:55;;;;;;;9.40;6.72;;;17.30;96.80;;;;;;5033459;28;20046;-71
2022/07/20 04:39:27;;;;;;;13.05;6.70;;;17.30;96.90;;;;;;5029218;28;20393;-71
2022/07/20 04:41:59;;;;;;;14.13;7.88;;;17.30;97.10;;;;;;5010640;28;20416;-70
2022/07/20 04:44:31;;;;;;;13.07;7.97;;;17.40;97.20;;;;;;5027056;28;20038;-72
2022/07/20 04:47:03;;;;;;;13.93;7.25;;;17.40;97.30;;;;;;5013541;28;20124;-71
2022/07/20 04:49:34;;;;;;;15.82;7.65;;;17.40;97.30;;;;;;5028466;28;20493;-71
2022/07/20 04:52:01;;;;;;;16.15;6.88;;;17.40;97.40;;;;;;5028475;28;20437;-71
2022/07/20 04:54:33;;;;;;;18.10;6.35;;;17.40;97.80;;;;;;5027603;28;20052;-71
2022/07/20 04:57:05;;;;;;;14.48;6.03;;;17.40;98.20;;;;;;5031137;28;20064;-71
2022/07/20 04:59:37;;;;;;;20.15;6.35;;;17.40;98.50;;;;;;5012067;28;20057;-71
2022/07/20 05:02:09;;;;;;;27.52;6.55;;;17.40;98.80;;;;;;5008686;28;20037;-71
2022/07/20 05:04:41;;;;;;;22.92;6.25;;;17.30;99.00;;;;;;5032366;28;20125;-71
2022/07/20 05:07:14;;;;;;;21.90;6.57;;;17.40;98.80;;;;;;5032130;28;20071;-71
2022/07/20 05:09:45;;;;;;;25.45;6.15;;;17.50;98.50;;;;;;4988432;28;20528;-71
2022/07/20 05:12:12;;;;;;;22.38;6.43;;;17.70;98.60;;;;;;5013088;28;20033;-71
2022/07/20 05:14:44;;;;;;;24.58;6.88;;;17.80;98.30;;;;;;5015509;28;20041;-70
2022/07/20 05:17:15;;;;;;;21.73;8.73;;;18.10;97.90;;;;;;5033120;28;20124;-71
2022/07/20 05:19:47;;;;;;;21.33;8.38;;;18.30;97.60;;;;;;5028805;28;20041;-71
2022/07/20 05:22:19;;;;;;;27.23;11.43;;;18.50;97.30;;;;;;5027968;28;20041;-71
2022/07/20 05:24:50;;;;;;;25.50;12.10;;;18.60;96.90;;;;;;5030915;28;20038;-71
2022/07/20 05:27:22;;;;;;;17.08;9.93;;;18.50;96.40;;;;;;5032132;28;20045;-71
2022/07/20 05:29:54;;;;;;;18.60;9.45;;;18.50;96.40;;;;;;5031529;28;20500;-71
2022/07/20 05:32:25;;;;;;;16.23;9.43;;;18.50;95.90;;;;;;5031732;28;20489;-71
2022/07/20 05:34:57;;;;;;;14.90;8.52;;;18.40;95.70;;;;;;5032574;28;20046;-71
2022/07/20 05:37:29;;;;;;;16.88;9.85;;;18.40;95.70;;;;;;5031147;28;20041;-71
2022/07/20 05:40:01;;;;;;;14.90;8.98;;;18.50;96.40;;;;;;5027784;28;20037;-71
2022/07/20 05:42:33;;;;;;;14.02;8.57;;;18.50;96.70;;;;;;5029076;28;20047;-71
2022/07/20 05:45:05;;;;;;;11.75;8.30;;;18.40;97.00;;;;;;5029471;28;20051;-71
2022/07/20 05:47:37;;;;;;;10.57;7.68;;;18.40;96.80;;;;;;5030985;28;20122;-71
2022/07/20 05:50:09;;;;;;;11.38;8.10;;;18.50;97.20;;;;;;5030891;28;20034;-71
2022/07/20 05:52:36;;;;;;;11.38;9.23;;;18.50;97.00;;;;;;5024439;28;20052;-71
2022/07/20 05:55:07;;;;;;;11.57;8.15;;;18.60;97.20;;;;;;5015108;28;20053;-71
2022/07/20 05:57:39;;;;;;;11.45;7.75;;;18.60;97.30;;;;;;5029812;28;20052;-71
2022/07/20 06:00:11;;;;;;;13.23;9.48;;;18.70;97.00;;;;;;5029413;28;20148;-70
2022/07/20 06:02:43;;;;;;;12.90;9.13;;;18.80;97.10;;;;;;5029464;28;20059;-70
2022/07/20 06:05:15;;;;;;;19.95;9.07;;;18.80;96.90;;;;;;5029539;28;20044;-71
2022/07/20 06:07:46;;;;;;;16.45;10.10;;;18.90;96.80;;;;;;5032121;28;20048;-70
2022/07/20 06:10:18;;;;;;;13.13;9.18;;;18.90;96.50;;;;;;5013795;28;20060;-71
2022/07/20 06:12:50;;;;;;;12.68;8.40;;;19.00;96.00;;;;;;5017919;28;20047;-70
2022/07/20 06:15:24;;;;;;;14.82;8.60;;;19.00;96.10;;;;;;5029092;28;20045;-71
2022/07/20 06:17:56;;;;;;;13.60;8.98;;;19.10;95.80;;;;;;5022086;28;20056;-71
2022/07/20 06:20:28;;;;;;;13.57;8.35;;;19.10;95.20;;;;;;5013602;28;20048;-70
2022/07/20 06:22:59;;;;;;;12.95;8.07;;;19.20;95.40;;;;;;5030127;28;20045;-71
2022/07/20 06:25:31;;;;;;;11.73;7.55;;;19.30;95.50;;;;;;5030153;28;20037;-71
2022/07/20 06:28:03;;;;;;;13.15;7.68;;;19.40;95.20;;;;;;5028397;28;20052;-70
2022/07/20 06:30:35;;;;;;;10.98;7.75;;;19.40;95.00;;;;;;5027340;28;20038;-71
2022/07/20 06:33:07;;;;;;;7.97;6.95;;;19.50;95.10;;;;;;5008489;28;20046;-71
2022/07/20 06:35:38;;;;;;;10.25;7.18;;;19.60;95.00;;;;;;5025368;28;20045;-71
2022/07/20 06:38:10;;;;;;;9.40;7.57;;;19.70;94.80;;;;;;5027876;28;20048;-71
2022/07/20 06:40:42;;;;;;;13.57;7.32;;;19.70;95.20;;;;;;5030121;28;20041;-71
2022/07/20 06:43:14;;;;;;;10.48;6.82;;;19.80;94.70;;;;;;5028869;28;20069;-71
2022/07/20 06:45:49;;;;;;;9.05;6.35;;;19.90;94.80;;;;;;5027258;28;20556;-71
2022/07/20 06:48:20;;;;;;;9.25;6.63;;;20.00;94.80;;;;;;5029268;28;20044;-70
2022/07/20 06:50:52;;;;;;;11.73;6.55;;;20.10;94.70;;;;;;5029113;28;20030;-71
2022/07/20 06:53:24;;;;;;;12.25;7.03;;;20.20;95.10;;;;;;5029412;28;20059;-71
2022/07/20 06:55:55;;;;;;;13.90;7.60;;;20.30;94.50;;;;;;5030919;28;20053;-71
2022/07/20 06:58:27;;;;;;;10.60;7.03;;;20.40;94.10;;;;;;5027749;28;20049;-71
2022/07/20 07:00:59;;;;;;;9.38;7.18;;;20.50;93.80;;;;;;5029769;28;20414;-71
2022/07/20 07:03:31;;;;;;;11.18;6.72;;;20.60;93.70;;;;;;5004864;28;20050;-71
2022/07/20 07:06:02;;;;;;;9.25;6.82;;;20.70;93.90;;;;;;5025393;28;20050;-71
2022/07/20 07:08:34;;;;;;;10.95;6.78;;;20.80;93.70;;;;;;5027800;28;20072;-71
2022/07/20 07:11:06;;;;;;;9.25;6.53;;;20.90;93.30;;;;;;5030407;28;20033;-71
2022/07/20 07:13:38;;;;;;;10.68;7.63;;;21.00;93.30;;;;;;5028850;28;20038;-71
2022/07/20 07:16:09;;;;;;;11.82;7.40;;;21.10;93.20;;;;;;5024112;28;20501;-71
2022/07/20 07:18:41;;;;;;;11.20;7.15;;;21.30;93.00;;;;;;5028735;28;20037;-71
2022/07/20 07:21:13;;;;;;;12.13;7.75;;;21.40;92.70;;;;;;5029421;28;20056;-71
2022/07/20 07:23:49;;;;;;;10.60;7.28;;;21.60;92.70;;;;;;5029588;28;20355;-71
2022/07/20 07:26:17;;;;;;;18.38;8.20;;;21.80;92.70;;;;;;5021467;28;20156;-71
2022/07/20 07:28:50;;;;;;;10.88;7.38;;;22.00;92.20;;;;;;5025162;28;20504;-71
2022/07/20 07:31:21;;;;;;;13.00;8.17;;;22.10;91.60;;;;;;5022008;28;20041;-71
2022/07/20 07:33:53;;;;;;;8.13;6.47;;;22.30;91.30;;;;;;5025149;28;20493;-71
2022/07/20 07:36:25;;;;;;;9.48;7.35;;;22.40;91.00;;;;;;5017902;28;20049;-71
2022/07/20 07:38:57;;;;;;;9.30;7.30;;;22.60;90.90;;;;;;5024483;28;20041;-71
2022/07/20 07:41:29;;;;;;;10.68;6.88;;;22.70;90.40;;;;;;5019864;28;20033;-69
2022/07/20 07:44:00;;;;;;;9.25;6.97;;;22.90;90.10;;;;;;5019775;28;21231;-71
2022/07/20 07:46:27;;;;;;;14.27;7.80;;;23.10;88.80;;;;;;5023277;28;20469;-71
2022/07/20 07:48:59;;;;;;;11.07;6.90;;;23.20;87.90;;;;;;5010538;28;20805;-71
2022/07/20 07:51:30;;;;;;;10.73;7.38;;;23.40;86.90;;;;;;4999511;28;20048;-71
2022/07/20 07:53:58;;;;;;;10.07;6.78;;;23.60;87.10;;;;;;5023331;28;20048;-71
2022/07/20 07:56:25;;;;;;;9.50;7.43;;;23.80;86.00;;;;;;5024409;28;20041;-71
2022/07/20 07:58:57;;;;;;;12.13;6.90;;;23.90;85.60;;;;;;5019155;28;20049;-73
2022/07/20 08:01:23;;;;;;;9.32;7.05;;;24.10;84.30;;;;;;5008060;28;20044;-71
2022/07/20 08:03:55;;;;;;;9.80;7.03;;;24.30;83.80;;;;;;5019124;28;20060;-71
2022/07/20 08:06:27;;;;;;;7.93;6.68;;;24.50;83.00;;;;;;5010394;28;20080;-71
2022/07/20 08:08:54;;;;;;;10.88;6.65;;;24.60;81.60;;;;;;5021830;28;20049;-71
2022/07/20 08:11:26;;;;;;;10.55;6.80;;;24.70;81.50;;;;;;5007399;28;20041;-71
2022/07/20 08:14:00;;;;;;;11.20;6.95;;;24.80;80.80;;;;;;5016195;28;20121;-71
2022/07/20 08:16:32;;;;;;;8.70;7.20;;;24.90;81.70;;;;;;5005414;28;20049;-70
2022/07/20 08:19:04;;;;;;;7.97;6.43;;;25.10;81.20;;;;;;5004132;28;20045;-71
2022/07/20 08:21:35;;;;;;;8.98;7.10;;;25.30;79.00;;;;;;5004861;28;20419;-70
2022/07/20 08:24:07;;;;;;;9.40;6.38;;;25.40;79.80;;;;;;5022155;28;20042;-71
2022/07/20 08:26:39;;;;;;;13.50;6.63;;;25.50;78.10;;;;;;5024665;28;20409;-71
2022/07/20 08:29:11;;;;;;;8.68;6.78;;;25.60;78.00;;;;;;5017913;28;20037;-71
2022/07/20 08:31:43;;;;;;;11.20;6.82;;;25.70;77.20;;;;;;5021131;28;20030;-71
2022/07/20 08:34:14;;;;;;;9.57;6.97;;;25.90;77.10;;;;;;5019066;28;20124;-71
2022/07/20 08:36:46;;;;;;;12.70;7.10;;;26.00;75.90;;;;;;5018867;28;20067;-71
2022/07/20 08:39:18;;;;;;;8.35;6.57;;;26.10;76.20;;;;;;5008855;28;20148;-71
2022/07/20 08:41:50;;;;;;;8.63;6.68;;;26.30;75.70;;;;;;5026766;28;20417;-70
2022/07/20 08:44:22;;;;;;;7.93;7.10;;;26.40;74.90;;;;;;5026357;28;20050;-71
2022/07/20 08:46:51;;;;;;;8.45;6.95;;;26.60;74.60;;;;;;5022815;28;20047;-71
2022/07/20 08:49:19;;;;;;;8.40;6.47;;;26.70;73.60;;;;;;5011420;28;20493;-71
2022/07/20 08:51:51;;;;;;;11.68;7.30;;;26.80;73.30;;;;;;5011607;28;20041;-71
2022/07/20 08:54:23;;;;;;;9.65;7.53;;;27.00;73.60;;;;;;5024810;28;20049;-71
2022/07/20 08:56:54;;;;;;;10.52;7.43;;;27.10;73.50;;;;;;5021289;28;20060;-71
2022/07/20 08:59:26;;;;;;;10.35;7.47;;;27.30;72.10;;;;;;5024103;28;20410;-70
2022/07/20 09:02:00;;;;;;;9.95;7.40;;;27.40;71.60;;;;;;5024011;28;20072;-71
2022/07/20 09:04:52;;;;;;;12.38;7.55;;;27.50;70.00;;;;;;5026492;28;20038;-71
2022/07/20 09:07:38;;;;;;;8.88;7.45;;;27.60;70.00;;;;;;5028191;28;20124;-71
2022/07/20 09:10:13;;;;;;;10.10;7.43;;;27.70;70.70;;;;;;5022806;28;20041;-71
2022/07/20 09:13:05;;;;;;;9.07;8.10;;;27.90;69.80;;;;;;5021536;28;20052;-71
2022/07/20 09:15:47;;;;;;;12.32;7.22;;;28.00;69.40;;;;;;5025476;28;20041;-71
2022/07/20 09:18:23;;;;;;;9.00;8.10;;;28.20;69.00;;;;;;5021690;28;20056;-71
2022/07/20 09:21:04;;;;;;;11.25;7.78;;;28.30;67.50;;;;;;5026080;28;20061;-71
2022/07/20 09:23:41;;;;;;;11.20;7.25;;;28.40;67.60;;;;;;5020116;28;20041;-71
2022/07/20 09:26:16;;;;;;;10.57;7.65;;;28.50;67.40;;;;;;5010501;28;20045;-71
2022/07/20 09:28:50;;;;;;;12.07;7.75;;;28.70;67.50;;;;;;5026142;28;20048;-69
2022/07/20 09:31:30;;;;;;;9.82;7.60;;;28.90;67.20;;;;;;5021378;28;20045;-71
2022/07/20 09:34:06;;;;;;;11.63;8.10;;;29.00;66.70;;;;;;5010241;28;20068;-71
2022/07/20 09:36:40;;;;;;;10.07;7.40;;;29.20;65.80;;;;;;5026564;28;20053;-70
2022/07/20 09:39:15;;;;;;;14.10;7.50;;;29.40;66.20;;;;;;5004062;28;20053;-71
2022/07/20 09:41:56;;;;;;;9.40;6.93;;;29.40;65.00;;;;;;5024705;28;20524;-71
2022/07/20 09:44:30;;;;;;;8.30;7.47;;;29.70;64.10;;;;;;5020191;28;20126;-70
2022/07/20 09:47:11;;;;;;;10.07;7.20;;;29.80;62.40;;;;;;5022580;28;20548;-70
2022/07/20 09:49:43;;;;;;;13.88;8.20;;;29.80;63.20;;;;;;5022650;28;20392;-70
2022/07/20 09:52:14;;;;;;;9.68;7.18;;;29.90;62.10;;;;;;5021223;28;20038;-71
2022/07/20 09:54:47;;;;;;;11.13;7.47;;;30.00;62.30;;;;;;5019142;28;20531;-71
2022/07/20 09:57:20;;;;;;;23.67;8.40;;;30.20;61.40;;;;;;5024713;28;20398;-70
2022/07/20 09:59:55;;;;;;;8.00;7.20;;;30.30;60.60;;;;;;5025327;28;20065;-71
2022/07/20 10:02:27;;;;;;;9.43;7.15;;;30.40;60.00;;;;;;5023827;28;20055;-70
2022/07/20 10:05:00;;;;;;;10.95;7.20;;;30.50;60.30;;;;;;5025156;28;20041;-70
2022/07/20 10:07:32;;;;;;;15.95;7.68;;;30.70;60.70;;;;;;5018050;28;20066;-71
2022/07/20 10:10:04;;;;;;;8.88;7.15;;;30.90;60.40;;;;;;5023046;28;20044;-70
2022/07/20 10:12:37;;;;;;;7.05;6.35;;;31.00;58.90;;;;;;5023634;28;20750;-70
2022/07/20 10:15:14;;;;;;;9.93;6.30;;;31.10;60.10;;;;;;5010469;28;20049;-71
2022/07/20 10:17:46;;;;;;;7.63;5.97;;;31.20;58.30;;;;;;5021240;28;20037;-70
2022/07/20 10:20:35;;;;;;;11.23;6.53;;;31.30;56.90;;;;;;5025811;28;20517;-71
2022/07/20 10:23:14;;;;;;;8.20;6.55;;;31.30;57.30;;;;;;5020455;28;20566;-71
2022/07/20 10:25:46;;;;;;;7.60;5.90;;;31.30;55.90;;;;;;5020389;28;20405;-71
2022/07/20 10:28:24;;;;;;;10.95;6.50;;;31.40;56.30;;;;;;5009642;28;20048;-71
2022/07/20 10:31:08;;;;;;;8.80;6.28;;;31.40;56.80;;;;;;5022583;28;20030;-71
2022/07/20 10:33:39;;;;;;;7.47;6.70;;;31.60;56.40;;;;;;5019341;28;20053;-71
2022/07/20 10:39:46;;;;;;;7.15;6.28;;;31.80;54.50;;;;;;5022091;28;20315;-71
2022/07/20 10:42:48;;;;;;;7.32;5.70;;;32.00;54.80;;;;;;5026834;28;20037;-71
2022/07/20 10:45:20;;;;;;;9.80;5.32;;;32.10;54.40;;;;;;5021240;28;20052;-71
2022/07/20 10:47:58;;;;;;;11.53;6.03;;;32.20;52.90;;;;;;5040239;22;20045;-71
2022/07/20 10:50:31;;;;;;;10.00;5.50;;;32.40;53.40;;;;;;5037640;28;20033;-70
2022/07/20 10:53:12;;;;;;;7.78;5.28;;;32.60;51.80;;;;;;5021008;28;20048;-70
2022/07/20 10:55:44;;;;;;;6.45;5.32;;;32.60;49.70;;;;;;5039208;28;20064;-73
2022/07/20 10:58:17;;;;;;;6.00;5.43;;;32.70;50.10;;;;;;5031851;28;20093;-72
2022/07/20 11:00:54;;;;;;;11.05;6.15;;;32.80;50.70;;;;;;5042773;28;20041;-72
2022/07/20 11:03:44;;;;;;;7.70;5.47;;;32.90;50.00;;;;;;5040307;28;20037;-72
2022/07/20 11:06:18;;;;;;;10.40;5.68;;;33.00;49.70;;;;;;5032105;28;20128;-73
2022/07/20 11:08:54;;;;;;;7.18;5.05;;;33.00;49.60;;;;;;5021925;28;20754;-72
2022/07/20 11:11:29;;;;;;;15.20;5.78;;;33.10;48.40;;;;;;5019345;28;20051;-74
2022/07/20 11:14:04;;;;;;;12.75;4.95;;;33.20;48.80;;;;;;5030650;28;20053;-73
2022/07/20 11:16:37;;;;;;;6.05;4.45;;;33.40;48.20;;;;;;5040638;28;20045;-73
2022/07/20 11:19:09;;;;;;;8.50;4.70;;;33.50;46.70;;;;;;5042167;28;20033;-73
2022/07/20 11:21:43;;;;;;;7.80;5.90;;;33.60;45.70;;;;;;5050842;28;20047;-73
2022/07/20 11:24:25;;;;;;;9.10;5.20;;;33.70;46.30;;;;;;5049692;28;20147;-72
2022/07/20 11:27:11;;;;;;;6.07;4.75;;;34.00;46.50;;;;;;5040271;28;20047;-72
2022/07/20 11:29:47;;;;;;;8.85;6.10;;;34.00;45.00;;;;;;5047101;28;20049;-71
2022/07/20 11:32:14;;;;;;;5.28;4.25;;;34.00;43.90;;;;;;5042515;28;20037;-72
2022/07/20 11:34:49;;;;;;;9.73;4.78;;;33.90;43.90;;;;;;5050314;28;20037;-72
2022/07/20 11:37:22;;;;;;;8.10;4.82;;;33.90;44.90;;;;;;5041639;28;20040;-71
2022/07/20 11:39:53;;;;;;;;;;;34.00;44.10;;;;;;5039734;28;20425;-72
2022/07/20 11:42:25;;;;;;;5.38;4.88;;;34.10;43.50;;;;;;5042328;28;19921;-72
2022/07/20 11:45:01;;;;;;;6.22;4.60;;;34.10;44.00;;;;;;5036587;28;20087;-72
2022/07/20 11:47:33;;;;;;;5.05;4.38;;;34.30;44.40;;;;;;5038117;28;20032;-74
2022/07/20 11:50:09;;;;;;;10.57;5.03;;;34.50;44.00;;;;;;5042364;28;20419;-73
2022/07/20 11:52:42;;;;;;;5.38;4.57;;;34.70;44.30;;;;;;5039315;28;20048;-73
2022/07/20 11:55:14;;;;;;;5.10;4.60;;;34.80;44.10;;;;;;5032515;28;20043;-72
2022/07/20 11:57:55;;;;;;;5.72;4.15;;;34.80;42.80;;;;;;5034613;28;20045;-73
2022/07/20 12:00:27;;;;;;;5.75;5.15;;;35.00;43.60;;;;;;5039005;28;20037;-73
2022/07/20 12:02:59;;;;;;;6.80;4.53;;;35.10;43.00;;;;;;5027792;28;20143;-72
2022/07/20 12:05:32;;;;;;;6.30;4.97;;;35.20;42.60;;;;;;5036791;28;20037;-73
2022/07/20 12:08:16;;;;;;;9.20;5.20;;;35.10;42.20;;;;;;5038645;28;20039;-72
2022/07/20 12:10:47;;;;;;;7.03;4.57;;;35.10;42.30;;;;;;5030942;28;20065;-73
2022/07/20 12:13:21;;;;;;;6.32;4.57;;;35.20;42.70;;;;;;5042258;28;20045;-73
2022/07/20 12:15:56;;;;;;;6.28;4.88;;;35.30;41.60;;;;;;5037484;28;20053;-74
2022/07/20 12:18:34;;;;;;;6.43;3.97;;;35.40;41.30;;;;;;5040237;28;20045;-74
2022/07/20 12:21:09;;;;;;;5.50;4.75;;;35.60;40.40;;;;;;5044471;28;20061;-73
2022/07/20 12:23:37;;;;;;;8.60;4.50;;;35.60;40.00;;;;;;5041104;28;20051;-72
2022/07/20 12:26:30;;;;;;;6.28;4.70;;;35.80;41.20;;;;;;5041646;28;20045;-73
2022/07/20 12:29:28;;;;;;;7.28;4.72;;;36.00;42.10;;;;;;5042506;28;20061;-74
2022/07/20 12:32:02;;;;;;;6.82;5.22;;;36.10;41.20;;;;;;5029711;28;20045;-73
2022/07/20 12:34:55;;;;;;;6.80;5.38;;;36.10;40.80;;;;;;5043582;28;20041;-73
2022/07/20 12:37:53;;;;;;;7.45;4.60;;;36.10;40.10;;;;;;5016501;28;20045;-73
2022/07/20 12:40:47;;;;;;;6.63;4.22;;;36.00;41.00;;;;;;5042038;28;20125;-73
2022/07/20 12:43:36;;;;;;;6.75;4.32;;;36.10;40.90;;;;;;5048346;28;20044;-73
2022/07/20 12:46:10;;;;;;;7.68;4.38;;;36.40;41.60;;;;;;5039767;28;20041;-73
2022/07/20 12:48:52;;;;;;;5.45;4.65;;;36.50;40.90;;;;;;5045291;28;20747;-73
2022/07/20 12:51:24;;;;;;;5.68;4.57;;;36.70;40.10;;;;;;5043754;28;20044;-74
2022/07/20 12:53:56;;;;;;;6.13;4.30;;;36.70;39.00;;;;;;5039936;28;20068;-72
2022/07/20 12:56:27;;;;;;;5.70;4.47;;;36.70;39.10;;;;;;5021874;28;20049;-73
2022/07/20 12:59:00;;;;;;;6.38;4.38;;;36.70;38.60;;;;;;5045018;28;20041;-73
2022/07/20 13:01:32;;;;;;;4.40;3.92;;;36.80;39.00;;;;;;5041189;28;20051;-73
2022/07/20 13:04:04;;;;;;;6.88;4.15;;;36.60;38.40;;;;;;5044953;28;20552;-74
2022/07/20 13:06:36;;;;;;;5.82;4.45;;;36.60;38.30;;;;;;5038951;28;20053;-73
2022/07/20 13:09:08;;;;;;;5.07;4.15;;;36.70;38.60;;;;;;5040280;28;20103;-73
2022/07/20 13:11:41;;;;;;;6.22;4.78;;;36.80;38.40;;;;;;5042260;28;20041;-72
2022/07/20 13:14:09;;;;;;;7.93;4.88;;;36.90;38.20;;;;;;5045004;28;20045;-73
2022/07/20 13:16:41;;;;;;;6.43;4.97;;;36.90;37.60;;;;;;5034288;28;20068;-74
2022/07/20 13:19:13;;;;;;;5.40;4.90;;;37.10;37.70;;;;;;5034475;28;20045;-74
2022/07/20 13:21:46;;;;;;;9.30;4.65;;;37.20;36.70;;;;;;5045757;28;20037;-73